createdAt,value
2023-01-11T00:00:09.179Z,5.35
2023-01-11T00:01:11.748Z,6.30
2023-01-11T00:02:15.216Z,5.53
2023-01-11T00:03:18.188Z,5.70
2023-01-11T00:04:23.540Z,5.45
2023-01-11T00:05:25.894Z,10.45
2023-01-11T00:06:29.355Z,6.03
2023-01-11T00:07:31.957Z,6.70
2023-01-11T00:08:35.532Z,6.68
2023-01-11T00:09:37.987Z,5.50
2023-01-11T00:10:42.748Z,5.05
2023-01-11T00:11:45.620Z,10.02
2023-01-11T00:12:49.925Z,8.88
2023-01-11T00:13:52.231Z,7.88
2023-01-11T00:14:55.639Z,6.78
2023-01-11T00:15:57.996Z,4.60
2023-01-11T00:17:01.422Z,9.38
2023-01-11T00:18:04.130Z,7.20
2023-01-11T00:19:08.028Z,5.10
2023-01-11T00:20:10.965Z,9.80
2023-01-11T00:21:15.081Z,9.02
2023-01-11T00:22:17.809Z,5.28
2023-01-11T00:23:21.329Z,6.07
2023-01-11T00:24:24.267Z,5.63
2023-01-11T00:25:27.895Z,5.38
2023-01-11T00:26:32.155Z,6.22
2023-01-11T00:27:35.551Z,6.38
2023-01-11T00:28:37.938Z,4.37
2023-01-11T00:29:41.347Z,6.22
2023-01-11T00:30:44.326Z,6.00
2023-01-11T00:31:47.675Z,4.47
2023-01-11T00:32:50.077Z,4.82
2023-01-11T00:33:53.674Z,7.20
2023-01-11T00:34:56.071Z,6.15
2023-01-11T00:35:59.532Z,7.25
2023-01-11T00:37:02.175Z,5.90
2023-01-11T00:38:05.533Z,5.97
2023-01-11T00:39:07.885Z,7.47
2023-01-11T00:40:12.151Z,5.25
2023-01-11T00:41:34.838Z,7.90
2023-01-11T00:42:56.896Z,6.85
2023-01-11T00:44:18.611Z,5.38
2023-01-11T00:45:39.409Z,7.43
2023-01-11T00:47:00.446Z,4.75
2023-01-11T00:48:06.189Z,8.13
2023-01-11T00:49:08.538Z,7.03
2023-01-11T00:50:12.453Z,10.15
2023-01-11T00:51:15.229Z,5.70
2023-01-11T00:52:18.880Z,4.82
2023-01-11T00:53:22.568Z,6.50
2023-01-11T00:54:25.231Z,3.85
2023-01-11T00:55:29.327Z,3.63
2023-01-11T00:56:31.763Z,4.85
2023-01-11T00:57:35.185Z,7.85
2023-01-11T00:58:39.133Z,5.43
2023-01-11T00:59:43.153Z,7.90
2023-01-11T01:00:47.091Z,6.25
2023-01-11T01:01:50.112Z,6.20
2023-01-11T01:02:53.585Z,9.30
2023-01-11T01:03:55.987Z,4.20
2023-01-11T01:04:59.404Z,6.78
2023-01-11T01:06:01.767Z,6.93
2023-01-11T01:07:05.730Z,5.80
2023-01-11T01:08:08.457Z,6.97
2023-01-11T01:09:11.889Z,4.95
2023-01-11T01:10:16.738Z,6.50
2023-01-11T01:11:20.124Z,8.30
2023-01-11T01:12:37.341Z,9.40
2023-01-11T01:13:59.463Z,5.72
2023-01-11T01:15:02.008Z,4.95
2023-01-11T01:16:05.951Z,5.80
2023-01-11T01:17:09.413Z,3.00
2023-01-11T01:18:12.964Z,3.78
2023-01-11T01:19:15.675Z,5.82
2023-01-11T01:20:20.914Z,4.80
2023-01-11T01:21:23.477Z,5.07
2023-01-11T01:22:27.425Z,4.65
2023-01-11T01:23:29.835Z,3.83
2023-01-11T01:24:34.003Z,7.85
2023-01-11T01:25:37.393Z,6.93
2023-01-11T01:26:40.665Z,7.65
2023-01-11T01:27:43.008Z,7.20
2023-01-11T01:28:48.009Z,4.55
2023-01-11T01:29:50.207Z,4.15
2023-01-11T01:30:53.980Z,4.82
2023-01-11T01:31:56.388Z,6.82
2023-01-11T01:32:59.961Z,6.03
2023-01-11T01:34:02.261Z,3.90
2023-01-11T01:35:06.594Z,5.50
2023-01-11T01:36:09.834Z,3.00
2023-01-11T01:37:14.930Z,4.90
2023-01-11T01:38:17.256Z,4.63
2023-01-11T01:39:21.252Z,4.05
2023-01-11T01:40:23.456Z,7.47
2023-01-11T01:41:26.791Z,4.93
2023-01-11T01:42:29.525Z,3.50
2023-01-11T01:43:59.132Z,6.88
2023-01-11T01:45:07.415Z,3.97
2023-01-11T01:46:11.028Z,2.75
2023-01-11T01:47:14.237Z,2.75
2023-01-11T01:48:21.989Z,5.80
2023-01-11T01:49:24.292Z,4.70
2023-01-11T01:50:32.053Z,4.10
2023-01-11T01:51:40.074Z,3.83
2023-01-11T01:52:45.660Z,3.13
2023-01-11T01:53:50.672Z,4.68
2023-01-11T01:54:54.181Z,6.45
2023-01-11T01:56:01.070Z,5.53
2023-01-11T01:57:11.705Z,4.60
2023-01-11T01:58:18.726Z,6.10
2023-01-11T01:59:27.103Z,3.05
2023-01-11T02:00:30.154Z,4.88
2023-01-11T02:01:49.980Z,3.55
2023-01-11T02:02:52.833Z,5.35
2023-01-11T02:03:56.656Z,2.80
2023-01-11T02:04:59.624Z,3.90
2023-01-11T02:06:03.227Z,6.05
2023-01-11T02:07:09.460Z,5.90
2023-01-11T02:08:22.212Z,5.40
2023-01-11T02:09:31.788Z,5.57
2023-01-11T02:10:35.511Z,4.70
2023-01-11T02:11:43.470Z,4.55
2023-01-11T02:12:51.685Z,5.80
2023-01-11T02:13:54.864Z,4.53
2023-01-11T02:15:01.636Z,6.82
2023-01-11T02:16:10.100Z,5.63
2023-01-11T02:17:13.573Z,7.85
2023-01-11T02:18:19.762Z,4.57
2023-01-11T02:19:35.525Z,5.60
2023-01-11T02:20:57.676Z,8.27
2023-01-11T02:22:17.843Z,4.60
2023-01-11T02:23:52.657Z,6.13
2023-01-11T02:25:15.047Z,7.32
2023-01-11T02:26:50.154Z,6.78
2023-01-11T02:28:08.408Z,3.70
2023-01-11T02:29:19.239Z,7.13
2023-01-11T02:30:27.130Z,3.97
2023-01-11T02:31:36.071Z,6.30
2023-01-11T02:32:51.168Z,6.15
2023-01-11T02:34:06.668Z,6.03
2023-01-11T02:35:19.080Z,6.57
2023-01-11T02:36:31.427Z,11.18
2023-01-11T02:37:43.630Z,4.97
2023-01-11T02:38:54.265Z,7.03
2023-01-11T02:40:07.322Z,6.47
2023-01-11T02:41:19.511Z,5.97
2023-01-11T02:42:46.768Z,6.72
2023-01-11T02:44:32.131Z,5.83
2023-01-11T02:45:42.903Z,8.65
2023-01-11T02:46:52.519Z,7.18
2023-01-11T02:48:00.893Z,5.90
2023-01-11T02:49:12.359Z,7.75
2023-01-11T02:50:22.869Z,7.28
2023-01-11T02:51:34.588Z,8.20
2023-01-11T02:52:45.659Z,6.18
2023-01-11T02:53:52.940Z,5.97
2023-01-11T02:55:00.421Z,8.98
2023-01-11T02:56:07.696Z,7.77
2023-01-11T02:57:12.454Z,6.32
2023-01-11T02:58:16.993Z,6.00
2023-01-11T02:59:25.169Z,8.07
2023-01-11T03:00:27.989Z,6.10
2023-01-11T03:01:31.383Z,6.63
2023-01-11T03:02:33.934Z,6.15
2023-01-11T03:03:37.390Z,8.00
2023-01-11T03:04:40.428Z,4.38
2023-01-11T03:05:49.845Z,5.25
2023-01-11T03:07:04.762Z,5.20
2023-01-11T03:08:19.275Z,5.57
2023-01-11T03:09:32.799Z,6.07
2023-01-11T03:10:42.139Z,5.03
2023-01-11T03:12:23.059Z,5.75
2023-01-11T03:13:40.784Z,5.85
2023-01-11T03:15:00.979Z,4.47
2023-01-11T03:16:23.004Z,6.25
2023-01-11T03:17:38.286Z,5.25
2023-01-11T03:18:49.935Z,5.85
2023-01-11T03:19:53.769Z,8.27
2023-01-11T03:21:06.950Z,9.45
2023-01-11T03:22:17.299Z,6.60
2023-01-11T03:23:31.137Z,6.90
2023-01-11T03:24:40.660Z,9.25
2023-01-11T03:25:56.920Z,10.23
2023-01-11T03:27:09.345Z,7.03
2023-01-11T03:28:20.925Z,6.53
2023-01-11T03:29:31.353Z,5.43
2023-01-11T03:30:46.177Z,6.80
2023-01-11T03:31:53.771Z,4.83
2023-01-11T03:33:03.711Z,6.32
2023-01-11T03:34:15.851Z,5.38
2023-01-11T03:35:27.211Z,4.53
2023-01-11T03:36:35.544Z,5.28
2023-01-11T03:37:43.275Z,6.25
2023-01-11T03:38:53.246Z,3.08
2023-01-11T03:40:04.255Z,3.42
2023-01-11T03:41:12.863Z,7.53
2023-01-11T03:42:22.267Z,5.43
2023-01-11T03:43:26.548Z,4.27
2023-01-11T03:44:34.240Z,3.58
2023-01-11T03:45:42.691Z,4.32
2023-01-11T03:46:49.711Z,4.25
2023-01-11T03:47:54.325Z,5.00
2023-01-11T03:49:04.483Z,1.92
2023-01-11T03:50:12.175Z,3.85
2023-01-11T03:51:20.363Z,3.75
2023-01-11T03:52:29.384Z,5.20
2023-01-11T03:53:36.845Z,3.55
2023-01-11T03:54:40.335Z,4.80
2023-01-11T03:55:47.900Z,2.78
2023-01-11T03:56:56.605Z,3.65
2023-01-11T03:58:00.470Z,3.15
2023-01-11T03:59:02.987Z,3.90
2023-01-11T04:00:09.054Z,8.27
2023-01-11T04:01:13.468Z,4.05
2023-01-11T04:02:18.449Z,4.57
2023-01-11T04:03:20.827Z,4.88
2023-01-11T04:04:25.234Z,4.57
2023-01-11T04:05:28.915Z,5.50
2023-01-11T04:06:37.213Z,4.38
2023-01-11T04:07:40.358Z,5.50
2023-01-11T04:08:43.787Z,4.85
2023-01-11T04:09:46.348Z,5.28
2023-01-11T04:10:49.709Z,5.65
2023-01-11T04:11:52.378Z,3.63
2023-01-11T04:12:56.258Z,3.97
2023-01-11T04:13:58.907Z,5.45
2023-01-11T04:15:05.433Z,2.85
2023-01-11T04:16:08.214Z,2.90
2023-01-11T04:17:13.017Z,4.28
2023-01-11T04:18:15.947Z,4.43
2023-01-11T04:19:19.435Z,4.43
2023-01-11T04:20:22.154Z,6.30
2023-01-11T04:21:25.789Z,4.78
2023-01-11T04:22:29.065Z,7.43
2023-01-11T04:23:32.884Z,3.55
2023-01-11T04:24:35.357Z,4.15
2023-01-11T04:25:39.570Z,5.18
2023-01-11T04:26:42.110Z,3.63
2023-01-11T04:27:45.750Z,3.85
2023-01-11T04:28:48.461Z,3.15
2023-01-11T04:29:52.251Z,3.78
2023-01-11T04:30:54.687Z,5.78
2023-01-11T04:31:58.016Z,6.30
2023-01-11T04:33:02.103Z,4.00
2023-01-11T04:34:05.560Z,7.05
2023-01-11T04:35:08.675Z,5.93
2023-01-11T04:36:13.205Z,6.00
2023-01-11T04:37:16.848Z,5.93
2023-01-11T04:38:19.922Z,4.03
2023-01-11T04:39:23.526Z,3.80
2023-01-11T04:40:26.467Z,4.65
2023-01-11T04:41:47.394Z,5.50
2023-01-11T04:42:51.271Z,4.55
2023-01-11T04:43:55.743Z,8.82
2023-01-11T04:44:59.077Z,12.30
2023-01-11T04:46:01.995Z,17.00
2023-01-11T04:47:05.443Z,19.92
2023-01-11T04:48:09.380Z,16.50
2023-01-11T04:49:13.179Z,14.57
2023-01-11T04:50:16.128Z,5.13
2023-01-11T04:51:20.379Z,6.68
2023-01-11T04:52:22.935Z,6.72
2023-01-11T04:53:26.265Z,7.70
2023-01-11T04:54:28.636Z,9.18
2023-01-11T04:55:31.854Z,7.00
2023-01-11T04:56:34.480Z,7.88
2023-01-11T04:57:38.001Z,10.40
2023-01-11T04:58:40.437Z,8.93
2023-01-11T04:59:46.222Z,8.10
2023-01-11T05:00:48.818Z,8.02
2023-01-11T05:01:52.259Z,7.28
2023-01-11T05:02:55.563Z,8.35
2023-01-11T05:03:59.392Z,5.20
2023-01-11T05:05:02.899Z,4.57
2023-01-11T05:06:06.854Z,6.22
2023-01-11T05:07:11.301Z,6.90
2023-01-11T05:08:13.682Z,9.23
2023-01-11T05:09:19.181Z,6.83
2023-01-11T05:10:21.646Z,4.43
2023-01-11T05:11:25.037Z,5.95
2023-01-11T05:12:27.515Z,4.38
2023-01-11T05:13:42.754Z,5.38
2023-01-11T05:14:45.180Z,4.63
2023-01-11T05:15:49.249Z,3.17
2023-01-11T05:16:52.384Z,5.28
2023-01-11T05:17:55.710Z,3.80
2023-01-11T05:19:01.527Z,3.63
2023-01-11T05:20:05.686Z,3.90
2023-01-11T05:21:08.325Z,3.25
2023-01-11T05:22:11.797Z,7.22
2023-01-11T05:23:14.050Z,4.65
2023-01-11T05:24:18.485Z,4.20
2023-01-11T05:25:20.733Z,4.10
2023-01-11T05:26:27.468Z,4.93
2023-01-11T05:27:30.569Z,8.50
2023-01-11T05:28:34.160Z,3.40
2023-01-11T05:29:37.638Z,5.85
2023-01-11T05:30:40.190Z,4.73
2023-01-11T05:31:44.192Z,5.18
2023-01-11T05:32:46.606Z,4.95
2023-01-11T05:33:50.285Z,4.93
2023-01-11T05:34:54.207Z,5.25
2023-01-11T05:36:02.147Z,6.68
2023-01-11T05:37:04.482Z,5.20
2023-01-11T05:38:08.209Z,5.25
2023-01-11T05:39:13.339Z,5.57
2023-01-11T05:40:16.246Z,6.32
2023-01-11T05:41:21.228Z,7.73
2023-01-11T05:42:25.077Z,7.40
2023-01-11T05:43:28.829Z,4.75
2023-01-11T05:44:49.962Z,5.25
2023-01-11T05:45:52.506Z,8.40
2023-01-11T05:46:57.249Z,6.28
2023-01-11T05:48:00.295Z,5.80
2023-01-11T05:49:04.409Z,6.47
2023-01-11T05:50:10.687Z,4.00
2023-01-11T05:51:13.112Z,4.95
2023-01-11T05:52:16.913Z,5.10
2023-01-11T05:53:20.022Z,7.80
2023-01-11T05:54:23.709Z,4.13
2023-01-11T05:55:26.159Z,6.05
2023-01-11T05:56:29.842Z,4.15
2023-01-11T05:57:32.187Z,5.07
2023-01-11T05:58:35.482Z,7.13
2023-01-11T05:59:38.866Z,5.38
2023-01-11T06:00:41.265Z,7.40
2023-01-11T06:01:45.448Z,5.38
2023-01-11T06:02:48.202Z,6.07
2023-01-11T06:03:51.848Z,4.72
2023-01-11T06:04:55.621Z,5.40
2023-01-11T06:06:00.046Z,5.05
2023-01-11T06:07:04.047Z,6.40
2023-01-11T06:08:06.567Z,5.38
2023-01-11T06:09:09.994Z,5.30
2023-01-11T06:10:12.384Z,4.63
2023-01-11T06:11:16.128Z,6.78
2023-01-11T06:12:18.503Z,6.25
2023-01-11T06:13:27.899Z,5.60
2023-01-11T06:14:31.246Z,6.75
2023-01-11T06:15:33.589Z,10.20
2023-01-11T06:16:37.258Z,6.35
2023-01-11T06:17:41.250Z,4.32
2023-01-11T06:18:47.036Z,6.30
2023-01-11T06:19:49.432Z,5.03
2023-01-11T06:20:53.705Z,8.25
2023-01-11T06:21:58.976Z,5.35
2023-01-11T06:23:02.007Z,5.15
2023-01-11T06:24:05.802Z,6.43
2023-01-11T06:25:09.096Z,3.78
2023-01-11T06:26:14.740Z,5.97
2023-01-11T06:27:17.700Z,4.35
2023-01-11T06:28:21.655Z,3.65
2023-01-11T06:29:24.133Z,10.23
2023-01-11T06:30:27.680Z,8.27
2023-01-11T06:31:30.093Z,6.38
2023-01-11T06:32:33.608Z,6.22
2023-01-11T06:33:36.937Z,4.03
2023-01-11T06:34:40.583Z,4.63
2023-01-11T06:35:44.186Z,5.80
2023-01-11T06:36:47.646Z,5.28
2023-01-11T06:37:54.641Z,4.53
2023-01-11T06:38:58.003Z,5.53
2023-01-11T06:40:00.370Z,6.10
2023-01-11T06:41:07.284Z,4.68
2023-01-11T06:42:09.663Z,6.57
2023-01-11T06:43:13.414Z,4.90
2023-01-11T06:44:16.255Z,7.80
2023-01-11T06:45:19.757Z,7.27
2023-01-11T06:46:23.220Z,3.10
2023-01-11T06:47:26.691Z,3.90
2023-01-11T06:48:30.331Z,4.55
2023-01-11T06:49:33.583Z,7.32
2023-01-11T06:50:36.345Z,4.68
2023-01-11T06:51:39.947Z,5.05
2023-01-11T06:52:42.271Z,5.40
2023-01-11T06:53:47.276Z,7.75
2023-01-11T06:54:49.602Z,3.22
2023-01-11T06:55:53.876Z,5.20
2023-01-11T06:56:56.227Z,4.53
2023-01-11T06:57:59.992Z,6.03
2023-01-11T06:59:03.674Z,6.65
2023-01-11T07:00:07.161Z,4.03
2023-01-11T07:01:11.561Z,3.33
2023-01-11T07:02:14.072Z,4.95
2023-01-11T07:03:17.684Z,7.88
2023-01-11T07:04:21.672Z,8.45
2023-01-11T07:05:23.945Z,5.18
2023-01-11T07:06:29.265Z,8.23
2023-01-11T07:07:31.907Z,3.55
2023-01-11T07:08:35.227Z,4.75
2023-01-11T07:09:39.911Z,3.80
2023-01-11T07:10:44.145Z,5.15
2023-01-11T07:11:47.450Z,5.85
2023-01-11T07:12:51.954Z,4.88
2023-01-11T07:13:55.336Z,3.75
2023-01-11T07:14:58.319Z,5.70
2023-01-11T07:16:02.200Z,4.82
2023-01-11T07:17:05.120Z,5.27
2023-01-11T07:18:08.452Z,5.63
2023-01-11T07:19:10.768Z,5.47
2023-01-11T07:20:14.473Z,4.13
2023-01-11T07:21:17.852Z,4.07
2023-01-11T07:22:22.517Z,3.15
2023-01-11T07:23:26.506Z,3.65
2023-01-11T07:24:29.795Z,3.40
2023-01-11T07:25:34.275Z,3.65
2023-01-11T07:26:41.285Z,5.72
2023-01-11T07:27:43.967Z,12.13
2023-01-11T07:28:47.281Z,7.40
2023-01-11T07:29:49.792Z,7.82
2023-01-11T07:30:59.377Z,5.15
2023-01-11T07:32:02.286Z,6.00
2023-01-11T07:33:06.601Z,6.45
2023-01-11T07:34:09.747Z,3.50
2023-01-11T07:35:13.188Z,4.07
2023-01-11T07:36:20.147Z,3.10
2023-01-11T07:37:28.631Z,3.40
2023-01-11T07:38:33.083Z,4.87
2023-01-11T07:39:43.234Z,4.85
2023-01-11T07:40:48.518Z,5.30
2023-01-11T07:42:09.087Z,3.92
2023-01-11T07:43:15.125Z,3.75
2023-01-11T07:44:17.923Z,3.70
2023-01-11T07:45:21.305Z,3.55
2023-01-11T07:46:24.817Z,2.30
2023-01-11T07:47:27.692Z,4.93
2023-01-11T07:48:31.289Z,5.63
2023-01-11T07:49:33.598Z,7.63
2023-01-11T07:50:38.273Z,8.20
2023-01-11T07:51:41.550Z,8.18
2023-01-11T07:52:47.464Z,9.05
2023-01-11T07:53:50.673Z,8.00
2023-01-11T07:54:52.855Z,7.20
2023-01-11T07:55:57.710Z,7.55
2023-01-11T07:57:01.418Z,8.93
2023-01-11T07:58:04.183Z,5.38
2023-01-11T07:59:07.502Z,9.30
2023-01-11T08:00:11.057Z,9.27
2023-01-11T08:01:14.399Z,8.45
2023-01-11T08:02:16.582Z,15.88
2023-01-11T08:03:20.416Z,19.17
2023-01-11T08:04:23.097Z,16.23
2023-01-11T08:05:26.792Z,12.63
2023-01-11T08:06:29.023Z,17.75
2023-01-11T08:07:32.272Z,10.07
2023-01-11T08:08:34.527Z,11.05
2023-01-11T08:09:37.907Z,12.52
2023-01-11T08:10:42.263Z,8.83
2023-01-11T08:12:04.591Z,8.30
2023-01-11T08:13:25.393Z,15.02
2023-01-11T08:14:40.172Z,16.48
2023-01-11T08:15:44.247Z,13.48
2023-01-11T08:16:46.679Z,9.80
2023-01-11T08:17:50.127Z,11.60
2023-01-11T08:18:52.402Z,6.00
2023-01-11T08:19:56.327Z,7.47
2023-01-11T08:20:59.734Z,6.05
2023-01-11T08:22:02.279Z,11.47
2023-01-11T08:23:06.903Z,10.95
2023-01-11T08:24:09.358Z,6.35
2023-01-11T08:25:13.451Z,11.48
2023-01-11T08:26:18.159Z,5.07
2023-01-11T08:27:23.196Z,7.63
2023-01-11T08:28:25.883Z,7.32
2023-01-11T08:29:29.651Z,6.03
2023-01-11T08:30:32.405Z,7.22
2023-01-11T08:31:36.018Z,7.45
2023-01-11T08:32:38.275Z,13.57
2023-01-11T08:33:41.653Z,10.07
2023-01-11T08:34:44.060Z,15.40
2023-01-11T08:35:47.713Z,9.30
2023-01-11T08:36:51.369Z,12.35
2023-01-11T08:37:55.371Z,9.00
2023-01-11T08:38:58.794Z,13.35
2023-01-11T08:40:01.997Z,8.70
2023-01-11T08:41:10.881Z,12.85
2023-01-11T08:42:14.708Z,13.05
2023-01-11T08:43:20.129Z,7.67
2023-01-11T08:44:33.282Z,7.10
2023-01-11T08:45:38.180Z,9.07
2023-01-11T08:46:40.585Z,9.77
2023-01-11T08:47:43.907Z,8.32
2023-01-11T08:48:46.989Z,7.97
2023-01-11T08:49:50.944Z,8.18
2023-01-11T08:50:54.949Z,6.28
2023-01-11T08:51:58.548Z,10.50
2023-01-11T08:53:00.904Z,10.30
2023-01-11T08:54:04.181Z,6.80
2023-01-11T08:55:08.431Z,8.48
2023-01-11T08:56:11.824Z,7.40
2023-01-11T08:57:15.182Z,9.35
2023-01-11T08:58:21.546Z,9.25
2023-01-11T08:59:25.982Z,5.90
2023-01-11T09:00:29.634Z,9.27
2023-01-11T09:01:32.136Z,6.13
2023-01-11T09:02:35.753Z,9.25
2023-01-11T09:03:38.137Z,8.35
2023-01-11T09:04:42.659Z,6.73
2023-01-11T09:05:45.922Z,8.60
2023-01-11T09:06:49.308Z,9.45
2023-01-11T09:07:55.916Z,6.97
2023-01-11T09:08:58.347Z,6.13
2023-01-11T09:10:01.555Z,6.05
2023-01-11T09:11:24.479Z,6.35
2023-01-11T09:12:27.991Z,6.40
2023-01-11T09:13:31.871Z,6.43
2023-01-11T09:14:36.205Z,6.00
2023-01-11T09:15:39.608Z,6.37
2023-01-11T09:16:41.971Z,5.55
2023-01-11T09:17:45.348Z,5.82
2023-01-11T09:18:47.740Z,6.35
2023-01-11T09:19:51.199Z,7.63
2023-01-11T09:20:54.912Z,7.82
2023-01-11T09:22:02.372Z,5.40
2023-01-11T09:23:04.704Z,7.20
2023-01-11T09:24:08.566Z,6.60
2023-01-11T09:25:12.161Z,13.02
2023-01-11T09:26:15.333Z,13.50
2023-01-11T09:27:19.195Z,16.80
2023-01-11T09:28:21.961Z,17.48
2023-01-11T09:29:27.097Z,23.23
2023-01-11T09:30:29.987Z,18.60
2023-01-11T09:31:34.136Z,18.58
2023-01-11T09:32:36.622Z,17.95
2023-01-11T09:33:40.078Z,21.70
2023-01-11T09:34:46.792Z,18.88
2023-01-11T09:35:51.458Z,45.97
2023-01-11T09:36:56.765Z,53.93
2023-01-11T09:38:00.063Z,57.83
2023-01-11T09:39:07.795Z,67.50
2023-01-11T09:40:19.386Z,69.55
2023-01-11T09:41:36.407Z,94.50
2023-01-11T09:42:40.942Z,108.28
2023-01-11T09:43:52.198Z,168.20
2023-01-11T09:45:00.689Z,112.35
2023-01-11T09:46:08.889Z,128.85
2023-01-11T09:47:16.721Z,117.45
2023-01-11T09:48:29.076Z,117.10
2023-01-11T09:49:38.402Z,118.22
2023-01-11T09:50:47.787Z,132.40
2023-01-11T09:51:52.336Z,84.60
2023-01-11T09:52:59.610Z,63.58
2023-01-11T09:54:06.044Z,29.08
2023-01-11T09:55:19.294Z,16.73
2023-01-11T09:56:27.460Z,18.58
2023-01-11T09:57:45.417Z,16.48
2023-01-11T09:59:01.153Z,19.23
2023-01-11T10:00:15.511Z,15.33
2023-01-11T10:01:26.123Z,9.07
2023-01-11T10:02:39.875Z,9.93
2023-01-11T10:04:06.258Z,24.15
2023-01-11T10:05:51.522Z,10.52
2023-01-11T10:07:17.265Z,7.88
2023-01-11T10:18:27.731Z,8.40
2023-01-11T10:18:31.575Z,6.50
2023-01-11T10:19:04.209Z,4.70
2023-01-11T10:20:11.610Z,16.70
2023-01-11T10:21:23.612Z,8.77
2023-01-11T10:22:36.561Z,7.90
2023-01-11T10:23:49.738Z,10.73
2023-01-11T10:24:58.891Z,10.18
2023-01-11T10:26:07.235Z,10.15
2023-01-11T10:27:21.997Z,16.02
2023-01-11T10:28:33.277Z,4.47
2023-01-11T10:29:51.664Z,6.85
2023-01-11T10:31:28.796Z,6.63
2023-01-11T10:32:53.302Z,8.82
2023-01-11T10:34:18.595Z,9.77
2023-01-11T10:35:48.027Z,7.20
2023-01-11T10:37:17.035Z,7.45
2023-01-11T10:38:42.816Z,6.40
2023-01-11T10:40:06.574Z,8.10
2023-01-11T10:41:22.350Z,9.23
2023-01-11T10:42:29.752Z,6.63
2023-01-11T10:43:35.262Z,7.80
2023-01-11T10:44:43.786Z,7.80
2023-01-11T10:45:51.405Z,7.88
2023-01-11T10:46:59.716Z,6.53
2023-01-11T10:48:08.943Z,8.50
2023-01-11T10:49:32.988Z,7.45
2023-01-11T10:50:40.886Z,6.75
2023-01-11T10:51:49.243Z,8.15
2023-01-11T10:53:00.146Z,8.43
2023-01-11T10:54:14.319Z,8.33
2023-01-11T10:55:23.435Z,7.32
2023-01-11T10:56:37.327Z,8.70
2023-01-11T10:58:02.972Z,10.95
2023-01-11T10:59:22.131Z,11.88
2023-01-11T11:00:35.502Z,13.32
2023-01-11T11:01:55.373Z,10.40
2023-01-11T11:03:28.011Z,8.32
2023-01-11T11:04:49.626Z,8.45
2023-01-11T11:06:01.911Z,8.38
2023-01-11T11:07:12.563Z,11.10
2023-01-11T11:08:27.171Z,10.93
2023-01-11T11:09:41.558Z,10.43
2023-01-11T11:10:52.747Z,9.73
2023-01-11T11:12:00.376Z,9.95
2023-01-11T11:13:14.033Z,9.90
2023-01-11T11:14:28.575Z,7.82
2023-01-11T11:15:40.376Z,9.32
2023-01-11T11:16:56.884Z,6.18
2023-01-11T11:18:00.098Z,10.55
2023-01-11T11:19:05.327Z,7.27
2023-01-11T11:20:15.104Z,7.05
2023-01-11T11:21:22.645Z,7.18
2023-01-11T11:22:26.305Z,8.52
2023-01-11T11:23:29.367Z,6.22
2023-01-11T11:24:37.207Z,12.02
2023-01-11T11:25:51.427Z,9.05
2023-01-11T11:27:01.068Z,6.95
2023-01-11T11:28:07.437Z,8.10
2023-01-11T11:29:11.839Z,6.93
2023-01-11T11:30:26.709Z,10.87
2023-01-11T11:31:30.619Z,11.68
2023-01-11T11:32:37.215Z,10.60
2023-01-11T11:33:41.204Z,10.15
2023-01-11T11:34:49.615Z,11.85
2023-01-11T11:35:58.034Z,10.10
2023-01-11T11:37:01.667Z,11.60
2023-01-11T11:38:05.877Z,11.90
2023-01-11T11:39:13.247Z,13.82
2023-01-11T11:40:31.421Z,21.52
2023-01-11T11:41:48.552Z,16.93
2023-01-11T11:43:10.212Z,16.98
2023-01-11T11:44:18.769Z,10.52
2023-01-11T11:45:22.492Z,10.50
2023-01-11T11:46:28.137Z,9.23
2023-01-11T11:47:31.507Z,9.38
2023-01-11T11:48:36.260Z,8.75
2023-01-11T11:49:40.020Z,10.10
2023-01-11T11:50:45.760Z,7.68
2023-01-11T11:51:49.743Z,8.07
2023-01-11T11:52:56.442Z,9.53
2023-01-11T11:53:59.832Z,8.38
2023-01-11T11:55:08.781Z,8.50
2023-01-11T11:56:24.968Z,8.18
2023-01-11T11:57:29.798Z,8.05
2023-01-11T11:58:33.262Z,6.97
2023-01-11T11:59:36.834Z,7.40
2023-01-11T12:00:47.372Z,7.43
2023-01-11T12:01:59.204Z,6.72
2023-01-11T12:03:06.380Z,7.75
2023-01-11T12:04:16.529Z,6.87
2023-01-11T12:05:19.726Z,6.40
2023-01-11T12:06:27.773Z,5.57
2023-01-11T12:07:49.705Z,6.75
2023-01-11T12:08:59.734Z,8.00
2023-01-11T12:10:07.153Z,4.50
2023-01-11T12:11:21.769Z,5.88
2023-01-11T12:12:27.857Z,7.78
2023-01-11T12:13:34.775Z,6.53
2023-01-11T12:14:37.069Z,6.47
2023-01-11T12:15:40.600Z,6.87
2023-01-11T12:16:46.075Z,5.85
2023-01-11T12:17:49.308Z,5.15
2023-01-11T12:18:53.075Z,7.22
2023-01-11T12:19:56.559Z,8.60
2023-01-11T12:21:11.907Z,6.38
2023-01-11T12:22:20.489Z,6.70
2023-01-11T12:23:24.438Z,5.03
2023-01-11T12:24:28.280Z,6.13
2023-01-11T12:25:32.564Z,5.78
2023-01-11T12:26:41.792Z,6.67
2023-01-11T12:27:51.436Z,5.28
2023-01-11T12:29:36.329Z,5.18
2023-01-11T12:30:49.260Z,6.65
2023-01-11T12:32:22.918Z,6.47
2023-01-11T12:33:35.424Z,3.97
2023-01-11T12:35:06.686Z,8.35
2023-01-11T12:36:18.341Z,6.80
2023-01-11T12:37:33.417Z,5.43
2023-01-11T12:38:56.674Z,5.45
2023-01-11T12:40:08.092Z,3.70
2023-01-11T12:41:43.924Z,6.60
2023-01-11T12:43:10.255Z,6.18
2023-01-11T12:44:20.503Z,7.78
2023-01-11T12:45:35.562Z,6.28
2023-01-11T12:46:53.529Z,5.75
2023-01-11T12:48:13.184Z,4.90
2023-01-11T12:49:29.773Z,4.88
2023-01-11T12:52:06.101Z,9.70
2023-01-11T12:53:36.932Z,5.20
2023-01-11T12:54:53.809Z,12.75
2023-01-11T12:56:12.579Z,6.57
2023-01-11T12:57:25.583Z,5.38
2023-01-11T12:58:36.543Z,5.68
2023-01-11T13:00:13.244Z,6.38
2023-01-11T13:01:28.310Z,8.70
2023-01-11T13:02:46.538Z,6.68
2023-01-11T13:04:20.282Z,5.57
2023-01-11T13:05:29.290Z,5.75
2023-01-11T13:06:38.456Z,5.00
2023-01-11T13:07:55.802Z,5.35
2023-01-11T13:09:07.755Z,6.35
2023-01-11T13:10:23.974Z,6.00
2023-01-11T13:11:40.299Z,6.22
2023-01-11T13:12:50.437Z,6.60
2023-01-11T13:14:01.516Z,6.70
2023-01-11T13:15:18.164Z,4.95
2023-01-11T13:16:27.383Z,11.52
2023-01-11T13:17:38.788Z,4.93
2023-01-11T13:18:49.857Z,6.20
2023-01-11T13:20:03.587Z,5.03
2023-01-11T13:21:19.464Z,8.07
2023-01-11T13:22:25.942Z,7.20
2023-01-11T13:23:40.229Z,5.22
2023-01-11T13:24:48.480Z,8.70
2023-01-11T13:25:54.279Z,6.03
2023-01-11T13:27:02.861Z,6.53
2023-01-11T13:28:24.383Z,8.68
2023-01-11T13:29:32.336Z,7.75
2023-01-11T13:30:35.518Z,9.53
2023-01-11T13:33:13.304Z,6.53
2023-01-11T13:34:21.562Z,9.75
2023-01-11T13:35:35.388Z,5.13
2023-01-11T13:36:42.985Z,7.32
2023-01-11T13:37:52.055Z,6.75
2023-01-11T13:39:02.966Z,6.32
2023-01-11T13:40:20.029Z,10.20
2023-01-11T13:41:26.863Z,8.27
2023-01-11T13:42:37.126Z,6.43
2023-01-11T13:43:44.065Z,8.63
2023-01-11T13:44:53.026Z,7.05
2023-01-11T13:46:03.728Z,6.60
2023-01-11T13:47:15.106Z,8.27
2023-01-11T13:48:26.284Z,11.10
2023-01-11T13:49:46.055Z,7.88
2023-01-11T13:50:54.697Z,7.28
2023-01-11T13:52:00.951Z,8.68
2023-01-11T13:53:12.756Z,8.40
2023-01-11T13:54:21.023Z,7.93
2023-01-11T13:55:31.016Z,9.35
2023-01-11T13:56:40.863Z,9.02
2023-01-11T13:57:52.306Z,8.05
2023-01-11T13:59:01.257Z,9.05
2023-01-11T14:00:16.509Z,8.68
2023-01-11T14:01:23.899Z,10.27
2023-01-11T14:02:38.275Z,9.35
2023-01-11T14:03:49.418Z,10.95
2023-01-11T14:04:58.895Z,8.73
2023-01-11T14:06:21.920Z,8.17
2023-01-11T14:07:34.919Z,10.90
2023-01-11T14:09:00.467Z,9.88
2023-01-11T14:10:31.669Z,13.80
2023-01-11T14:11:44.858Z,15.52
2023-01-11T14:13:02.825Z,10.32
2023-01-11T14:14:18.935Z,11.85
2023-01-11T14:15:32.545Z,10.30
2023-01-11T14:16:44.561Z,10.55
2023-01-11T14:18:11.744Z,8.15
2023-01-11T14:19:23.774Z,11.37
2023-01-11T14:20:34.285Z,9.88
2023-01-11T14:21:44.827Z,19.80
2023-01-11T14:22:59.444Z,19.67
2023-01-11T14:24:04.809Z,18.70
2023-01-11T14:25:15.438Z,14.25
2023-01-11T14:26:57.433Z,10.32
2023-01-11T14:28:20.095Z,13.32
2023-01-11T14:29:59.107Z,11.68
2023-01-11T14:31:28.806Z,9.40
2023-01-11T14:32:59.132Z,9.27
2023-01-11T14:34:26.140Z,9.65
2023-01-11T14:35:52.085Z,9.57
2023-01-11T14:37:18.082Z,12.13
2023-01-11T14:39:05.904Z,10.50
2023-01-11T14:40:35.997Z,10.10
2023-01-11T14:41:58.317Z,8.98
2023-01-11T14:43:23.344Z,12.07
2023-01-11T14:45:02.499Z,12.25
2023-01-11T14:46:21.735Z,9.07
2023-01-11T14:47:45.768Z,9.67
2023-01-11T14:48:58.669Z,12.32
2023-01-11T14:50:14.426Z,10.90
2023-01-11T14:51:33.281Z,11.38
2023-01-11T14:52:40.782Z,13.00
2023-01-11T14:53:51.218Z,9.48
2023-01-11T14:54:55.796Z,12.05
2023-01-11T14:55:59.079Z,9.82
2023-01-11T14:57:03.749Z,12.25
2023-01-11T14:58:18.420Z,9.98
2023-01-11T14:59:40.933Z,10.75
2023-01-11T15:01:11.290Z,8.48
2023-01-11T15:02:18.058Z,10.88
2023-01-11T15:03:56.022Z,11.20
2023-01-11T15:05:10.549Z,11.30
2023-01-11T15:06:16.533Z,8.32
2023-01-11T15:07:25.855Z,11.15
2023-01-11T15:08:42.209Z,8.00
2023-01-11T15:09:48.053Z,8.00
2023-01-11T15:10:55.953Z,8.23
2023-01-11T15:12:13.371Z,10.38
2023-01-11T15:13:20.523Z,7.53
2023-01-11T15:14:29.865Z,8.43